RYR1UN LIBD-LBSF
Flight info
| Callsign | RYR1UN |
|---|---|
| Flight time | 0h 57m |
| Altitude | 35000 |
| Route | VURKE DCT PAPIZ DCT MAVAR DCT BUREK DCT SKJ DCT SIN T215 VELBA T343 MOREK |
| Aircraft | B738/M-SDE2E3FGHIRWXY/LB1 |
Departure
| Time | 2026-05-05 18:23 |
|---|---|
| Airport | Bari Karol Wojtyła International Airport (LIBD) |
Arrival
| Time | 2026-05-05 19:21 |
|---|---|
| Airport | Sofia Airport (LBSF) |
| Time | Latitude | Longitude | Altitude | Speed | Heading |
|---|---|---|---|---|---|
| 2026-05-05 17:59 | 41.13610 | 16.76166 | 152 ft | 0 kts | 25° |
| 2026-05-05 18:17 | 41.13612 | 16.76167 | 152 ft | 1 kts | 25° |
| 2026-05-05 18:17 | 41.13619 | 16.76178 | 152 ft | 2 kts | 66° |
| 2026-05-05 18:17 | 41.13611 | 16.76188 | 152 ft | 2 kts | 160° |
| 2026-05-05 18:18 | 41.13598 | 16.76192 | 152 ft | 2 kts | 163° |
| 2026-05-05 18:18 | 41.13573 | 16.76197 | 152 ft | 4 kts | 193° |
| 2026-05-05 18:18 | 41.13555 | 16.76162 | 153 ft | 5 kts | 252° |
| 2026-05-05 18:18 | 41.13561 | 16.76114 | 154 ft | 6 kts | 301° |
| 2026-05-05 18:19 | 41.13604 | 16.76062 | 154 ft | 10 kts | 320° |
| 2026-05-05 18:19 | 41.13640 | 16.75977 | 156 ft | 12 kts | 256° |
| 2026-05-05 18:19 | 41.13614 | 16.75877 | 161 ft | 11 kts | 250° |
| 2026-05-05 18:19 | 41.13587 | 16.75780 | 164 ft | 12 kts | 249° |
| 2026-05-05 18:20 | 41.13555 | 16.75668 | 165 ft | 14 kts | 248° |
| 2026-05-05 18:20 | 41.13516 | 16.75534 | 168 ft | 17 kts | 249° |
| 2026-05-05 18:20 | 41.13470 | 16.75374 | 169 ft | 21 kts | 249° |
| 2026-05-05 18:20 | 41.13417 | 16.75187 | 174 ft | 22 kts | 249° |
| 2026-05-05 18:21 | 41.13364 | 16.74998 | 180 ft | 22 kts | 249° |
| 2026-05-05 18:21 | 41.13308 | 16.74803 | 186 ft | 23 kts | 250° |
| 2026-05-05 18:21 | 41.13252 | 16.74607 | 205 ft | 22 kts | 249° |
| 2026-05-05 18:21 | 41.13198 | 16.74416 | 199 ft | 22 kts | 249° |
| 2026-05-05 18:22 | 41.13169 | 16.74247 | 207 ft | 16 kts | 288° |
| 2026-05-05 18:22 | 41.13223 | 16.74135 | 199 ft | 13 kts | 324° |
| 2026-05-05 18:22 | 41.13283 | 16.74112 | 202 ft | 6 kts | 9° |
| 2026-05-05 18:22 | 41.13308 | 16.74145 | 199 ft | 6 kts | 63° |
| 2026-05-05 18:23 | 41.13343 | 16.74263 | 202 ft | 35 kts | 69° |
| 2026-05-05 18:23 | 41.13522 | 16.74898 | 177 ft | 110 kts | 69° |
| 2026-05-05 18:23 | 41.13861 | 16.76106 | 211 ft | 163 kts | 71° |
| 2026-05-05 18:23 | 41.14253 | 16.77525 | 892 ft | 166 kts | 72° |
| 2026-05-05 18:24 | 41.14680 | 16.79027 | 1522 ft | 178 kts | 71° |
| 2026-05-05 18:24 | 41.15130 | 16.80583 | 2272 ft | 183 kts | 71° |
| 2026-05-05 18:24 | 41.15581 | 16.82152 | 3108 ft | 183 kts | 70° |
| 2026-05-05 18:24 | 41.16043 | 16.83770 | 3728 ft | 197 kts | 70° |
| 2026-05-05 18:25 | 41.16559 | 16.85605 | 4001 ft | 224 kts | 70° |
| 2026-05-05 18:25 | 41.16932 | 16.86933 | 4148 ft | 241 kts | 70° |
| 2026-05-05 18:25 | 41.17747 | 16.89830 | 4774 ft | 256 kts | 70° |
| 2026-05-05 18:25 | 41.18063 | 16.92165 | 5341 ft | 266 kts | 95° |
| 2026-05-05 18:26 | 41.17774 | 16.94625 | 5891 ft | 280 kts | 101° |
| 2026-05-05 18:26 | 41.17392 | 16.97186 | 6680 ft | 285 kts | 102° |
| 2026-05-05 18:26 | 41.17001 | 16.99783 | 7486 ft | 289 kts | 101° |
| 2026-05-05 18:26 | 41.16613 | 17.02417 | 8292 ft | 293 kts | 101° |
| 2026-05-05 18:27 | 41.16227 | 17.05097 | 9090 ft | 298 kts | 101° |
| 2026-05-05 18:27 | 41.15843 | 17.07821 | 9880 ft | 303 kts | 101° |
| 2026-05-05 18:27 | 41.15456 | 17.10603 | 10480 ft | 314 kts | 101° |
| 2026-05-05 18:27 | 41.15048 | 17.13574 | 10659 ft | 340 kts | 101° |
| 2026-05-05 18:28 | 41.14174 | 17.19990 | 11732 ft | 361 kts | 100° |
| 2026-05-05 18:28 | 41.13728 | 17.23276 | 12513 ft | 363 kts | 101° |
| 2026-05-05 18:28 | 41.13278 | 17.26596 | 13261 ft | 367 kts | 100° |
| 2026-05-05 18:29 | 41.12824 | 17.29949 | 13989 ft | 372 kts | 100° |
| 2026-05-05 18:29 | 41.12363 | 17.33341 | 14642 ft | 376 kts | 100° |
| 2026-05-05 18:29 | 41.11897 | 17.36764 | 15296 ft | 379 kts | 100° |
| 2026-05-05 18:29 | 41.11426 | 17.40221 | 15957 ft | 383 kts | 100° |
| 2026-05-05 18:30 | 41.10948 | 17.43720 | 16604 ft | 387 kts | 100° |
| 2026-05-05 18:30 | 41.10464 | 17.47251 | 17244 ft | 391 kts | 100° |
| 2026-05-05 18:30 | 41.09974 | 17.50820 | 17877 ft | 395 kts | 100° |
| 2026-05-05 18:30 | 41.09478 | 17.54425 | 18483 ft | 400 kts | 100° |
| 2026-05-05 18:31 | 41.08975 | 17.58070 | 18989 ft | 405 kts | 101° |
| 2026-05-05 18:31 | 41.08464 | 17.61763 | 19475 ft | 410 kts | 101° |
| 2026-05-05 18:31 | 41.07946 | 17.65501 | 19955 ft | 416 kts | 101° |
| 2026-05-05 18:31 | 41.07419 | 17.69286 | 20454 ft | 420 kts | 101° |
| 2026-05-05 18:32 | 41.06885 | 17.73121 | 20935 ft | 425 kts | 101° |
| 2026-05-05 18:32 | 41.06343 | 17.76997 | 21407 ft | 430 kts | 101° |
| 2026-05-05 18:32 | 41.05801 | 17.80866 | 21865 ft | 435 kts | 101° |
| 2026-05-05 18:32 | 41.05245 | 17.84822 | 22322 ft | 440 kts | 101° |
| 2026-05-05 18:33 | 41.04681 | 17.88828 | 22759 ft | 445 kts | 101° |
| 2026-05-05 18:33 | 41.04108 | 17.92885 | 23199 ft | 450 kts | 101° |
| 2026-05-05 18:33 | 41.03529 | 17.96980 | 23641 ft | 455 kts | 101° |
| 2026-05-05 18:33 | 41.02942 | 18.01116 | 24037 ft | 459 kts | 101° |
| 2026-05-05 18:34 | 41.02351 | 18.05271 | 24454 ft | 461 kts | 101° |
| 2026-05-05 18:34 | 41.01754 | 18.09449 | 24889 ft | 463 kts | 101° |
| 2026-05-05 18:34 | 41.01153 | 18.13650 | 25304 ft | 465 kts | 101° |
| 2026-05-05 18:34 | 41.00548 | 18.17868 | 25691 ft | 468 kts | 101° |
| 2026-05-05 18:35 | 40.99937 | 18.22118 | 26070 ft | 471 kts | 101° |
| 2026-05-05 18:35 | 40.99320 | 18.26392 | 26460 ft | 474 kts | 101° |
| 2026-05-05 18:35 | 40.98700 | 18.30681 | 26838 ft | 476 kts | 101° |
| 2026-05-05 18:35 | 40.98074 | 18.34991 | 27207 ft | 479 kts | 101° |
| 2026-05-05 18:36 | 40.97443 | 18.39334 | 27567 ft | 481 kts | 101° |
| 2026-05-05 18:36 | 40.97022 | 18.42218 | 27805 ft | 483 kts | 101° |
| 2026-05-05 18:36 | 40.96382 | 18.46598 | 28154 ft | 486 kts | 101° |
| 2026-05-05 18:36 | 40.95739 | 18.50990 | 28500 ft | 488 kts | 101° |
| 2026-05-05 18:37 | 40.95089 | 18.55412 | 28838 ft | 490 kts | 101° |
| 2026-05-05 18:37 | 40.94435 | 18.59846 | 29155 ft | 493 kts | 101° |
| 2026-05-05 18:37 | 40.93775 | 18.64314 | 29477 ft | 496 kts | 101° |
| 2026-05-05 18:37 | 40.93111 | 18.68794 | 29785 ft | 498 kts | 101° |
| 2026-05-05 18:38 | 40.92442 | 18.73302 | 30072 ft | 501 kts | 101° |
| 2026-05-05 18:38 | 40.91769 | 18.77821 | 30330 ft | 503 kts | 101° |
| 2026-05-05 18:38 | 40.91088 | 18.82380 | 30588 ft | 505 kts | 100° |
| 2026-05-05 18:38 | 40.90405 | 18.86940 | 30877 ft | 506 kts | 100° |
| 2026-05-05 18:39 | 40.90055 | 18.91540 | 31198 ft | 503 kts | 85° |
| 2026-05-05 18:39 | 40.90529 | 18.96078 | 31572 ft | 495 kts | 71° |
| 2026-05-05 18:39 | 40.91682 | 19.00312 | 31968 ft | 485 kts | 58° |
| 2026-05-05 18:39 | 40.93433 | 19.04048 | 32340 ft | 477 kts | 50° |
| 2026-05-05 18:40 | 40.95311 | 19.07663 | 32703 ft | 475 kts | 50° |
| 2026-05-05 18:40 | 40.97183 | 19.11257 | 33037 ft | 475 kts | 50° |
| 2026-05-05 18:40 | 40.99045 | 19.14860 | 33376 ft | 474 kts | 50° |
| 2026-05-05 18:40 | 41.00890 | 19.18470 | 33747 ft | 473 kts | 50° |
| 2026-05-05 18:41 | 41.02716 | 19.22077 | 34106 ft | 471 kts | 50° |
| 2026-05-05 18:41 | 41.04534 | 19.25692 | 34396 ft | 470 kts | 50° |
| 2026-05-05 18:41 | 41.06340 | 19.29299 | 34670 ft | 470 kts | 50° |
| 2026-05-05 18:41 | 41.08140 | 19.32903 | 34944 ft | 469 kts | 51° |
| 2026-05-05 18:42 | 41.09935 | 19.36499 | 35231 ft | 467 kts | 51° |
| 2026-05-05 18:42 | 41.11725 | 19.40091 | 35520 ft | 466 kts | 51° |
| 2026-05-05 18:42 | 41.13507 | 19.43669 | 35794 ft | 465 kts | 51° |
| 2026-05-05 18:42 | 41.15264 | 19.47200 | 36043 ft | 464 kts | 51° |
| 2026-05-05 18:43 | 41.17037 | 19.50767 | 36337 ft | 462 kts | 51° |
| 2026-05-05 18:43 | 41.18804 | 19.54325 | 36642 ft | 460 kts | 51° |
| 2026-05-05 18:43 | 41.20563 | 19.57871 | 36930 ft | 459 kts | 51° |
| 2026-05-05 18:43 | 41.22312 | 19.61399 | 37116 ft | 459 kts | 51° |
| 2026-05-05 18:44 | 41.25848 | 19.68540 | 37110 ft | 463 kts | 51° |
| 2026-05-05 18:44 | 41.29363 | 19.75667 | 37093 ft | 458 kts | 51° |
| 2026-05-05 18:45 | 41.32836 | 19.82726 | 37106 ft | 454 kts | 51° |
| 2026-05-05 18:45 | 41.36286 | 19.89749 | 37111 ft | 453 kts | 51° |
| 2026-05-05 18:46 | 41.39723 | 19.96759 | 37119 ft | 451 kts | 51° |
| 2026-05-05 18:46 | 41.43151 | 20.03767 | 37122 ft | 452 kts | 51° |
| 2026-05-05 18:47 | 41.46582 | 20.10799 | 37122 ft | 452 kts | 51° |
| 2026-05-05 18:47 | 41.50010 | 20.17843 | 37121 ft | 454 kts | 51° |
| 2026-05-05 18:48 | 41.53437 | 20.24901 | 37081 ft | 451 kts | 51° |
| 2026-05-05 18:48 | 41.56541 | 20.32257 | 37105 ft | 465 kts | 64° |
| 2026-05-05 18:49 | 41.58197 | 20.40693 | 37125 ft | 472 kts | 73° |
| 2026-05-05 18:49 | 41.59541 | 20.49256 | 37092 ft | 467 kts | 73° |
| 2026-05-05 18:50 | 41.60890 | 20.57714 | 37099 ft | 464 kts | 73° |
| 2026-05-05 18:50 | 41.62260 | 20.66067 | 37101 ft | 464 kts | 73° |
| 2026-05-05 18:51 | 41.63670 | 20.74592 | 37089 ft | 468 kts | 73° |
| 2026-05-05 18:51 | 41.65072 | 20.83126 | 37073 ft | 470 kts | 73° |
| 2026-05-05 18:52 | 41.66465 | 20.91662 | 37073 ft | 471 kts | 73° |
| 2026-05-05 18:52 | 41.67845 | 21.00161 | 37065 ft | 470 kts | 73° |
| 2026-05-05 18:53 | 41.69225 | 21.08699 | 37050 ft | 469 kts | 73° |
| 2026-05-05 18:53 | 41.70590 | 21.17201 | 37056 ft | 465 kts | 73° |
| 2026-05-05 18:54 | 41.71944 | 21.25656 | 37038 ft | 464 kts | 73° |
| 2026-05-05 18:54 | 41.73288 | 21.34094 | 37025 ft | 463 kts | 73° |
| 2026-05-05 18:55 | 41.74620 | 21.42502 | 37020 ft | 461 kts | 73° |
| 2026-05-05 18:55 | 41.75942 | 21.50888 | 37024 ft | 459 kts | 73° |
| 2026-05-05 18:56 | 41.77239 | 21.59172 | 37001 ft | 451 kts | 73° |
| 2026-05-05 18:56 | 41.78526 | 21.67410 | 36921 ft | 453 kts | 73° |
| 2026-05-05 18:57 | 41.79172 | 21.71554 | 36571 ft | 454 kts | 73° |
| 2026-05-05 18:57 | 41.79809 | 21.75661 | 36228 ft | 448 kts | 73° |
| 2026-05-05 18:57 | 41.80437 | 21.79732 | 35856 ft | 444 kts | 73° |
| 2026-05-05 18:57 | 41.81057 | 21.83758 | 35467 ft | 441 kts | 73° |
| 2026-05-05 18:58 | 41.81674 | 21.87768 | 35075 ft | 437 kts | 73° |
| 2026-05-05 18:58 | 41.82285 | 21.91749 | 34696 ft | 434 kts | 73° |
| 2026-05-05 18:58 | 41.82891 | 21.95704 | 34316 ft | 432 kts | 73° |
| 2026-05-05 18:58 | 41.83492 | 21.99635 | 33930 ft | 429 kts | 73° |
| 2026-05-05 18:59 | 41.84089 | 22.03546 | 33498 ft | 427 kts | 73° |
| 2026-05-05 18:59 | 41.84679 | 22.07427 | 33100 ft | 424 kts | 73° |
| 2026-05-05 18:59 | 41.85265 | 22.11288 | 32711 ft | 421 kts | 73° |
| 2026-05-05 18:59 | 41.85845 | 22.15121 | 32329 ft | 418 kts | 73° |
| 2026-05-05 19:00 | 41.86420 | 22.18922 | 31966 ft | 415 kts | 73° |
| 2026-05-05 19:00 | 41.86991 | 22.22712 | 31599 ft | 412 kts | 73° |
| 2026-05-05 19:00 | 41.87554 | 22.26464 | 31234 ft | 411 kts | 73° |
| 2026-05-05 19:00 | 41.88131 | 22.30280 | 30904 ft | 426 kts | 73° |
| 2026-05-05 19:01 | 41.88734 | 22.34258 | 30515 ft | 445 kts | 73° |
| 2026-05-05 19:01 | 41.89363 | 22.38425 | 30111 ft | 464 kts | 73° |
| 2026-05-05 19:01 | 41.90336 | 22.42547 | 29785 ft | 458 kts | 56° |
| 2026-05-05 19:01 | 41.92085 | 22.45883 | 29733 ft | 430 kts | 41° |
| 2026-05-05 19:02 | 41.94232 | 22.48471 | 29448 ft | 404 kts | 29° |
| 2026-05-05 19:02 | 41.96615 | 22.50327 | 28769 ft | 391 kts | 22° |
| 2026-05-05 19:02 | 41.99013 | 22.52035 | 27897 ft | 389 kts | 23° |
| 2026-05-05 19:02 | 42.01394 | 22.53730 | 27415 ft | 387 kts | 23° |
| 2026-05-05 19:03 | 42.03778 | 22.55436 | 27305 ft | 389 kts | 23° |
| 2026-05-05 19:03 | 42.06158 | 22.57153 | 27170 ft | 387 kts | 24° |
| 2026-05-05 19:03 | 42.08521 | 22.58870 | 27067 ft | 386 kts | 24° |
| 2026-05-05 19:03 | 42.10879 | 22.60591 | 27033 ft | 385 kts | 24° |
| 2026-05-05 19:04 | 42.13233 | 22.62314 | 27032 ft | 384 kts | 24° |
| 2026-05-05 19:04 | 42.15578 | 22.64034 | 27025 ft | 383 kts | 24° |
| 2026-05-05 19:04 | 42.17896 | 22.65738 | 26867 ft | 375 kts | 24° |
| 2026-05-05 19:04 | 42.20163 | 22.67407 | 26212 ft | 371 kts | 24° |
| 2026-05-05 19:05 | 42.22430 | 22.69074 | 25419 ft | 371 kts | 25° |
| 2026-05-05 19:05 | 42.24695 | 22.70737 | 24661 ft | 371 kts | 25° |
| 2026-05-05 19:05 | 42.26955 | 22.72402 | 23982 ft | 369 kts | 25° |
| 2026-05-05 19:05 | 42.29199 | 22.74057 | 23304 ft | 365 kts | 26° |
| 2026-05-05 19:06 | 42.31418 | 22.75695 | 22592 ft | 362 kts | 26° |
| 2026-05-05 19:06 | 42.33615 | 22.77318 | 21886 ft | 359 kts | 26° |
| 2026-05-05 19:06 | 42.35798 | 22.78932 | 21188 ft | 356 kts | 26° |
| 2026-05-05 19:06 | 42.37956 | 22.80528 | 20515 ft | 353 kts | 26° |
| 2026-05-05 19:07 | 42.40105 | 22.82119 | 19859 ft | 350 kts | 26° |
| 2026-05-05 19:07 | 42.42235 | 22.83697 | 19233 ft | 348 kts | 27° |
| 2026-05-05 19:07 | 42.44344 | 22.85261 | 18609 ft | 345 kts | 27° |
| 2026-05-05 19:07 | 42.45951 | 22.86452 | 18125 ft | 343 kts | 27° |
| 2026-05-05 19:08 | 42.48038 | 22.88002 | 17461 ft | 340 kts | 27° |
| 2026-05-05 19:08 | 42.50105 | 22.89538 | 16821 ft | 337 kts | 27° |
| 2026-05-05 19:08 | 42.52148 | 22.91056 | 16200 ft | 334 kts | 27° |
| 2026-05-05 19:08 | 42.54313 | 22.92112 | 15535 ft | 331 kts | 9° |
| 2026-05-05 19:09 | 42.56592 | 22.92436 | 14952 ft | 328 kts | 4° |
| 2026-05-05 19:09 | 42.58860 | 22.92609 | 14328 ft | 326 kts | 3° |
| 2026-05-05 19:09 | 42.61119 | 22.92747 | 13738 ft | 324 kts | 3° |
| 2026-05-05 19:09 | 42.63368 | 22.92874 | 13079 ft | 322 kts | 2° |
| 2026-05-05 19:10 | 42.65599 | 22.93002 | 12462 ft | 320 kts | 2° |
| 2026-05-05 19:10 | 42.67815 | 22.93136 | 11850 ft | 317 kts | 2° |
| 2026-05-05 19:10 | 42.70016 | 22.93281 | 11243 ft | 316 kts | 2° |
| 2026-05-05 19:10 | 42.72202 | 22.93438 | 10650 ft | 314 kts | 2° |
| 2026-05-05 19:11 | 42.74304 | 22.94107 | 10174 ft | 310 kts | 29° |
| 2026-05-05 19:11 | 42.75818 | 22.96050 | 10031 ft | 296 kts | 59° |
| 2026-05-05 19:11 | 42.76409 | 22.98678 | 9560 ft | 292 kts | 92° |
| 2026-05-05 19:11 | 42.75875 | 23.01216 | 9469 ft | 273 kts | 125° |
| 2026-05-05 19:12 | 42.74582 | 23.02975 | 9324 ft | 258 kts | 139° |
| 2026-05-05 19:12 | 42.73418 | 23.04802 | 8957 ft | 254 kts | 123° |
| 2026-05-05 19:12 | 42.72615 | 23.06945 | 8379 ft | 256 kts | 111° |
| 2026-05-05 19:12 | 42.72044 | 23.09254 | 7659 ft | 260 kts | 105° |
| 2026-05-05 19:13 | 42.71628 | 23.11673 | 6974 ft | 263 kts | 102° |
| 2026-05-05 19:13 | 42.71347 | 23.14079 | 6746 ft | 253 kts | 97° |
| 2026-05-05 19:13 | 42.71397 | 23.16410 | 6481 ft | 244 kts | 73° |
| 2026-05-05 19:13 | 42.72256 | 23.18287 | 6362 ft | 230 kts | 41° |
| 2026-05-05 19:14 | 42.73628 | 23.19188 | 6212 ft | 220 kts | 8° |
| 2026-05-05 19:14 | 42.75118 | 23.18886 | 6057 ft | 216 kts | 332° |
| 2026-05-05 19:14 | 42.76099 | 23.17419 | 6007 ft | 218 kts | 289° |
| 2026-05-05 19:14 | 42.76437 | 23.15418 | 5993 ft | 217 kts | 290° |
| 2026-05-05 19:15 | 42.77384 | 23.13903 | 5990 ft | 213 kts | 334° |
| 2026-05-05 19:15 | 42.78822 | 23.13672 | 5990 ft | 213 kts | 18° |
| 2026-05-05 19:15 | 42.79992 | 23.14827 | 6001 ft | 212 kts | 60° |
| 2026-05-05 19:15 | 42.80280 | 23.16753 | 5970 ft | 213 kts | 101° |
| 2026-05-05 19:16 | 42.79560 | 23.18498 | 5658 ft | 217 kts | 140° |
| 2026-05-05 19:16 | 42.78313 | 23.19615 | 5357 ft | 213 kts | 152° |
| 2026-05-05 19:16 | 42.76971 | 23.20475 | 4937 ft | 215 kts | 155° |
| 2026-05-05 19:16 | 42.75593 | 23.21293 | 4462 ft | 215 kts | 155° |
| 2026-05-05 19:17 | 42.74239 | 23.22086 | 4157 ft | 206 kts | 155° |
| 2026-05-05 19:17 | 42.72982 | 23.22816 | 4083 ft | 187 kts | 156° |
| 2026-05-05 19:17 | 42.71819 | 23.23486 | 4048 ft | 180 kts | 149° |
| 2026-05-05 19:17 | 42.71059 | 23.24768 | 3939 ft | 177 kts | 108° |
| 2026-05-05 19:18 | 42.70745 | 23.26432 | 3703 ft | 184 kts | 101° |
| 2026-05-05 19:18 | 42.70511 | 23.28120 | 3482 ft | 178 kts | 99° |
| 2026-05-05 19:18 | 42.70372 | 23.29738 | 3236 ft | 168 kts | 95° |
| 2026-05-05 19:18 | 42.70277 | 23.31253 | 3046 ft | 154 kts | 95° |
| 2026-05-05 19:19 | 42.70189 | 23.32693 | 2834 ft | 154 kts | 95° |
| 2026-05-05 19:19 | 42.70097 | 23.34158 | 2626 ft | 156 kts | 95° |
| 2026-05-05 19:19 | 42.70006 | 23.35622 | 2401 ft | 153 kts | 94° |
| 2026-05-05 19:19 | 42.69926 | 23.37038 | 2226 ft | 150 kts | 95° |
| 2026-05-05 19:20 | 42.69841 | 23.38480 | 2036 ft | 154 kts | 96° |
| 2026-05-05 19:20 | 42.69756 | 23.39941 | 1802 ft | 155 kts | 95° |
| 2026-05-05 19:20 | 42.69675 | 23.41304 | 1754 ft | 123 kts | 94° |
| 2026-05-05 19:20 | 42.69622 | 23.42168 | 1743 ft | 61 kts | 95° |
| 2026-05-05 19:21 | 42.69586 | 23.42510 | 1751 ft | 18 kts | 106° |
| 2026-05-05 19:21 | 42.69542 | 23.42633 | 1750 ft | 14 kts | 129° |
| 2026-05-05 19:21 | 42.69488 | 23.42742 | 1744 ft | 14 kts | 132° |
| 2026-05-05 19:21 | 42.69418 | 23.42745 | 1752 ft | 11 kts | 221° |
| 2026-05-05 19:22 | 42.69405 | 23.42652 | 1752 ft | 10 kts | 275° |
| 2026-05-05 19:22 | 42.69412 | 23.42545 | 1749 ft | 13 kts | 275° |
| 2026-05-05 19:22 | 42.69419 | 23.42399 | 1752 ft | 18 kts | 274° |
| 2026-05-05 19:22 | 42.69431 | 23.42209 | 1752 ft | 22 kts | 275° |
| 2026-05-05 19:23 | 42.69443 | 23.41982 | 1752 ft | 25 kts | 274° |
| 2026-05-05 19:23 | 42.69457 | 23.41754 | 1752 ft | 23 kts | 275° |
| 2026-05-05 19:23 | 42.69454 | 23.41557 | 1748 ft | 18 kts | 233° |
| 2026-05-05 19:23 | 42.69337 | 23.41521 | 1752 ft | 18 kts | 184° |
| 2026-05-05 19:24 | 42.69237 | 23.41530 | 1748 ft | 9 kts | 165° |
| 2026-05-05 19:24 | 42.69201 | 23.41485 | 1750 ft | 8 kts | 249° |
| 2026-05-05 19:24 | 42.69192 | 23.41445 | 1748 ft | 0 kts | 254° |
| 2026-05-05 19:24 | 42.69191 | 23.41443 | 1744 ft | 0 kts | 253° |
| 2026-05-05 19:25 | 42.69191 | 23.41442 | 1744 ft | 0 kts | 253° |